Saturday, January 20, 2018, 3:31 AM GMT
Back to Local

CXSH, Shawinigan CS , Que.

Location: , , Canada Lat: 46.583
Local Time: 3:31 AM GMT ( 3:31 GMT) Lon: -72.583
Time Zone: GMT Elev: 360 ft

Show me the last for .
Show Coded

Time T Td Feel RH Dir Speed Gust Alt SLP Vis Weather Sky Remarks
2018-01-20 03:00 26 25 17 94 210° 9 - - 29.65 0 None
2018-01-20 02:00 26 25 18 94 210° 7 - - 29.69 0 None
2018-01-20 01:00 26 23 16 90 210° 9 - - 29.71 0 None
2018-01-20 00:00 25 22 16 88 210° 9 - - 29.75 0 None
2018-01-19 23:00 25 22 16 87 210° 9 - - 29.75 0 None
2018-01-19 22:00 25 21 16 83 210° 8 - - 29.76 0 None
2018-01-19 21:00 25 21 17 85 200° 7 - - 29.76 0 None
2018-01-19 20:00 25 22 15 87 220° 10 - - 29.79 0 None
2018-01-19 19:00 25 22 16 86 220° 9 - - 29.80 0 None
2018-01-19 18:00 25 22 16 86 210° 8 - - 29.80 0 None
2018-01-19 17:00 24 21 15 85 190° 9 - - 29.82 0 None
2018-01-19 16:00 24 20 15 85 210° 8 - - 29.84 0 None
2018-01-19 15:00 23 19 14 85 210° 8 - - 29.84 0 None
2018-01-19 14:00 22 18 14 86 200° 6 - - 29.83 0 None
2018-01-19 13:00 21 18 14 88 200° 5 - - 29.84 0 None
2018-01-19 12:00 21 18 14 88 210° 5 - - 29.84 0 None
2018-01-19 11:00 21 18 13 88 200° 6 - - 29.83 0 None
2018-01-19 10:00 21 18 14 88 200° 5 - - 29.83 0 None
2018-01-19 09:00 21 19 15 89 210° 5 - - 29.84 0 None
2018-01-19 08:00 22 19 14 89 210° 6 - - 29.85 0 None
2018-01-19 07:00 22 19 14 87 210° 7 - - 29.85 0 None
2018-01-19 06:00 22 19 16 88 210° 5 - - 29.85 0 None
2018-01-19 05:00 22 19 - 87 210° 2 - - 29.86 0 None
2018-01-19 04:00 23 19 17 85 210° 5 - - 29.86 0 None

Support USWX by starting your Amazon purchase here.